sensor_id;sensor_type;location;lat;lon;timestamp;P1;durP1;ratioP1;P2;durP2;ratioP2
68718;SDS011;55696;52.138;5.444;2022-10-26T00:00:11;10.02;;;5.35;;
68718;SDS011;55696;52.138;5.444;2022-10-26T00:02:38;12.35;;;4.88;;
68718;SDS011;55696;52.138;5.444;2022-10-26T00:05:05;10.77;;;4.82;;
68718;SDS011;55696;52.138;5.444;2022-10-26T00:07:32;7.57;;;5.03;;
68718;SDS011;55696;52.138;5.444;2022-10-26T00:09:59;10.40;;;5.33;;
68718;SDS011;55696;52.138;5.444;2022-10-26T00:12:26;17.85;;;5.28;;
68718;SDS011;55696;52.138;5.444;2022-10-26T00:14:52;10.88;;;5.65;;
68718;SDS011;55696;52.138;5.444;2022-10-26T00:17:19;12.57;;;5.38;;
68718;SDS011;55696;52.138;5.444;2022-10-26T00:19:46;11.75;;;5.72;;
68718;SDS011;55696;52.138;5.444;2022-10-26T00:22:12;13.63;;;5.53;;
68718;SDS011;55696;52.138;5.444;2022-10-26T00:24:39;13.70;;;5.85;;
68718;SDS011;55696;52.138;5.444;2022-10-26T00:27:06;11.63;;;5.00;;
68718;SDS011;55696;52.138;5.444;2022-10-26T00:29:33;9.80;;;5.03;;
68718;SDS011;55696;52.138;5.444;2022-10-26T00:31:59;8.75;;;5.07;;
68718;SDS011;55696;52.138;5.444;2022-10-26T00:34:26;13.20;;;5.27;;
68718;SDS011;55696;52.138;5.444;2022-10-26T00:36:53;10.43;;;5.20;;
68718;SDS011;55696;52.138;5.444;2022-10-26T00:39:19;9.70;;;4.90;;
68718;SDS011;55696;52.138;5.444;2022-10-26T00:41:46;13.10;;;5.10;;
68718;SDS011;55696;52.138;5.444;2022-10-26T00:47:11;7.67;;;5.00;;
68718;SDS011;55696;52.138;5.444;2022-10-26T00:49:44;11.55;;;6.45;;
68718;SDS011;55696;52.138;5.444;2022-10-26T00:52:14;9.75;;;5.38;;
68718;SDS011;55696;52.138;5.444;2022-10-26T00:54:43;11.35;;;5.50;;
68718;SDS011;55696;52.138;5.444;2022-10-26T00:57:10;11.02;;;5.28;;
68718;SDS011;55696;52.138;5.444;2022-10-26T00:59:39;9.97;;;5.77;;
68718;SDS011;55696;52.138;5.444;2022-10-26T01:02:07;15.40;;;6.13;;
68718;SDS011;55696;52.138;5.444;2022-10-26T01:04:34;7.90;;;5.45;;
68718;SDS011;55696;52.138;5.444;2022-10-26T01:07:02;9.77;;;4.95;;
68718;SDS011;55696;52.138;5.444;2022-10-26T01:09:29;17.67;;;5.75;;
68718;SDS011;55696;52.138;5.444;2022-10-26T01:11:58;11.53;;;4.80;;
68718;SDS011;55696;52.138;5.444;2022-10-26T01:14:25;10.57;;;5.00;;
68718;SDS011;55696;52.138;5.444;2022-10-26T01:16:56;9.70;;;5.35;;
68718;SDS011;55696;52.138;5.444;2022-10-26T01:22:41;11.45;;;4.43;;
68718;SDS011;55696;52.138;5.444;2022-10-26T01:25:34;11.90;;;4.83;;
68718;SDS011;55696;52.138;5.444;2022-10-26T01:28:39;8.77;;;4.30;;
68718;SDS011;55696;52.138;5.444;2022-10-26T01:31:10;11.05;;;4.53;;
68718;SDS011;55696;52.138;5.444;2022-10-26T01:33:41;7.22;;;4.32;;
68718;SDS011;55696;52.138;5.444;2022-10-26T01:36:17;7.00;;;4.38;;
68718;SDS011;55696;52.138;5.444;2022-10-26T01:39:14;10.70;;;4.37;;
68718;SDS011;55696;52.138;5.444;2022-10-26T01:41:49;14.35;;;4.07;;
68718;SDS011;55696;52.138;5.444;2022-10-26T01:44:20;10.73;;;4.47;;
68718;SDS011;55696;52.138;5.444;2022-10-26T01:46:50;14.23;;;4.88;;
68718;SDS011;55696;52.138;5.444;2022-10-26T01:49:21;11.40;;;4.35;;
68718;SDS011;55696;52.138;5.444;2022-10-26T01:51:51;13.33;;;4.30;;
68718;SDS011;55696;52.138;5.444;2022-10-26T01:54:18;10.13;;;4.53;;
68718;SDS011;55696;52.138;5.444;2022-10-26T01:56:52;13.85;;;4.60;;
68718;SDS011;55696;52.138;5.444;2022-10-26T02:16:01;9.13;;;4.75;;
68718;SDS011;55696;52.138;5.444;2022-10-26T02:18:51;14.50;;;4.67;;
68718;SDS011;55696;52.138;5.444;2022-10-26T02:21:33;9.60;;;4.88;;
68718;SDS011;55696;52.138;5.444;2022-10-26T02:24:02;13.52;;;5.25;;
68718;SDS011;55696;52.138;5.444;2022-10-26T02:26:36;10.88;;;4.78;;
68718;SDS011;55696;52.138;5.444;2022-10-26T02:29:06;12.55;;;4.70;;
68718;SDS011;55696;52.138;5.444;2022-10-26T02:31:36;8.20;;;4.97;;
68718;SDS011;55696;52.138;5.444;2022-10-26T02:34:06;11.35;;;5.20;;
68718;SDS011;55696;52.138;5.444;2022-10-26T02:36:38;11.52;;;5.15;;
68718;SDS011;55696;52.138;5.444;2022-10-26T02:39:08;11.90;;;5.43;;
68718;SDS011;55696;52.138;5.444;2022-10-26T02:41:38;10.85;;;4.95;;
68718;SDS011;55696;52.138;5.444;2022-10-26T02:44:07;17.20;;;5.00;;
68718;SDS011;55696;52.138;5.444;2022-10-26T02:46:48;10.82;;;5.13;;
68718;SDS011;55696;52.138;5.444;2022-10-26T02:49:16;13.30;;;5.28;;
68718;SDS011;55696;52.138;5.444;2022-10-26T02:51:55;13.50;;;5.00;;
68718;SDS011;55696;52.138;5.444;2022-10-26T02:57:37;10.30;;;4.90;;
68718;SDS011;55696;52.138;5.444;2022-10-26T03:00:06;15.32;;;5.38;;
68718;SDS011;55696;52.138;5.444;2022-10-26T03:02:34;11.68;;;5.40;;
68718;SDS011;55696;52.138;5.444;2022-10-26T03:08:02;9.23;;;4.85;;
68718;SDS011;55696;52.138;5.444;2022-10-26T03:10:28;11.13;;;5.50;;
68718;SDS011;55696;52.138;5.444;2022-10-26T03:12:57;10.45;;;5.40;;
68718;SDS011;55696;52.138;5.444;2022-10-26T03:15:24;7.90;;;4.78;;
68718;SDS011;55696;52.138;5.444;2022-10-26T03:17:51;10.80;;;4.72;;
68718;SDS011;55696;52.138;5.444;2022-10-26T03:20:17;13.20;;;5.55;;
68718;SDS011;55696;52.138;5.444;2022-10-26T03:22:46;11.47;;;4.93;;
68718;SDS011;55696;52.138;5.444;2022-10-26T03:25:14;9.13;;;4.97;;
68718;SDS011;55696;52.138;5.444;2022-10-26T03:27:41;11.75;;;4.80;;
68718;SDS011;55696;52.138;5.444;2022-10-26T03:30:08;10.43;;;4.25;;
68718;SDS011;55696;52.138;5.444;2022-10-26T03:32:36;10.55;;;4.45;;
68718;SDS011;55696;52.138;5.444;2022-10-26T03:35:03;15.03;;;5.33;;
68718;SDS011;55696;52.138;5.444;2022-10-26T03:37:30;10.95;;;4.88;;
68718;SDS011;55696;52.138;5.444;2022-10-26T03:39:57;10.98;;;5.10;;
68718;SDS011;55696;52.138;5.444;2022-10-26T03:42:23;10.80;;;4.63;;
68718;SDS011;55696;52.138;5.444;2022-10-26T03:44:50;10.98;;;4.75;;
68718;SDS011;55696;52.138;5.444;2022-10-26T03:47:17;10.17;;;4.77;;
68718;SDS011;55696;52.138;5.444;2022-10-26T03:49:44;8.07;;;4.45;;
68718;SDS011;55696;52.138;5.444;2022-10-26T03:52:10;12.98;;;4.88;;
68718;SDS011;55696;52.138;5.444;2022-10-26T03:54:37;10.65;;;4.70;;
68718;SDS011;55696;52.138;5.444;2022-10-26T03:57:04;11.38;;;5.18;;
68718;SDS011;55696;52.138;5.444;2022-10-26T03:59:30;8.47;;;4.70;;
68718;SDS011;55696;52.138;5.444;2022-10-26T04:01:57;10.60;;;4.75;;
68718;SDS011;55696;52.138;5.444;2022-10-26T04:04:24;11.60;;;5.20;;
68718;SDS011;55696;52.138;5.444;2022-10-26T04:06:51;15.65;;;5.13;;
68718;SDS011;55696;52.138;5.444;2022-10-26T04:09:18;11.55;;;4.72;;
68718;SDS011;55696;52.138;5.444;2022-10-26T04:11:44;11.03;;;4.93;;
68718;SDS011;55696;52.138;5.444;2022-10-26T04:14:11;12.25;;;4.70;;
68718;SDS011;55696;52.138;5.444;2022-10-26T04:16:38;10.30;;;5.30;;
68718;SDS011;55696;52.138;5.444;2022-10-26T04:19:05;14.68;;;5.00;;
68718;SDS011;55696;52.138;5.444;2022-10-26T04:21:31;11.40;;;4.93;;
68718;SDS011;55696;52.138;5.444;2022-10-26T04:23:58;9.30;;;4.47;;
68718;SDS011;55696;52.138;5.444;2022-10-26T04:26:25;8.35;;;4.97;;
68718;SDS011;55696;52.138;5.444;2022-10-26T04:28:52;10.50;;;4.53;;
68718;SDS011;55696;52.138;5.444;2022-10-26T04:31:18;10.18;;;4.63;;
68718;SDS011;55696;52.138;5.444;2022-10-26T04:33:45;11.13;;;4.70;;
68718;SDS011;55696;52.138;5.444;2022-10-26T04:36:12;8.50;;;4.63;;
68718;SDS011;55696;52.138;5.444;2022-10-26T04:38:39;12.02;;;4.70;;
68718;SDS011;55696;52.138;5.444;2022-10-26T04:41:05;11.05;;;4.80;;
68718;SDS011;55696;52.138;5.444;2022-10-26T04:43:32;9.75;;;4.70;;
68718;SDS011;55696;52.138;5.444;2022-10-26T04:45:58;8.40;;;4.63;;
68718;SDS011;55696;52.138;5.444;2022-10-26T04:48:25;9.77;;;4.50;;
68718;SDS011;55696;52.138;5.444;2022-10-26T04:50:52;8.50;;;5.07;;
68718;SDS011;55696;52.138;5.444;2022-10-26T04:53:18;8.80;;;4.32;;
68718;SDS011;55696;52.138;5.444;2022-10-26T04:55:45;8.85;;;4.80;;
68718;SDS011;55696;52.138;5.444;2022-10-26T04:58:12;10.25;;;4.20;;
68718;SDS011;55696;52.138;5.444;2022-10-26T05:00:39;9.80;;;4.57;;
68718;SDS011;55696;52.138;5.444;2022-10-26T05:03:06;9.20;;;4.53;;
68718;SDS011;55696;52.138;5.444;2022-10-26T05:05:33;10.73;;;4.70;;
68718;SDS011;55696;52.138;5.444;2022-10-26T05:08:01;7.10;;;4.30;;
68718;SDS011;55696;52.138;5.444;2022-10-26T05:10:28;7.00;;;3.70;;
68718;SDS011;55696;52.138;5.444;2022-10-26T05:12:56;14.37;;;4.63;;
68718;SDS011;55696;52.138;5.444;2022-10-26T05:15:24;9.52;;;4.60;;
68718;SDS011;55696;52.138;5.444;2022-10-26T05:17:59;9.50;;;4.82;;
68718;SDS011;55696;52.138;5.444;2022-10-26T05:20:31;12.77;;;4.70;;
68718;SDS011;55696;52.138;5.444;2022-10-26T05:23:00;17.58;;;4.72;;
68718;SDS011;55696;52.138;5.444;2022-10-26T05:25:30;11.93;;;4.83;;
68718;SDS011;55696;52.138;5.444;2022-10-26T05:27:58;9.32;;;4.78;;
68718;SDS011;55696;52.138;5.444;2022-10-26T05:30:25;10.43;;;4.50;;
68718;SDS011;55696;52.138;5.444;2022-10-26T05:32:53;7.93;;;4.10;;
68718;SDS011;55696;52.138;5.444;2022-10-26T05:35:21;11.43;;;4.57;;
68718;SDS011;55696;52.138;5.444;2022-10-26T05:37:48;9.27;;;4.30;;
68718;SDS011;55696;52.138;5.444;2022-10-26T05:40:15;9.10;;;3.90;;
68718;SDS011;55696;52.138;5.444;2022-10-26T05:42:43;10.68;;;4.90;;
68718;SDS011;55696;52.138;5.444;2022-10-26T05:45:10;8.70;;;4.50;;
68718;SDS011;55696;52.138;5.444;2022-10-26T05:47:41;11.85;;;5.13;;
68718;SDS011;55696;52.138;5.444;2022-10-26T05:50:10;15.30;;;4.73;;
68718;SDS011;55696;52.138;5.444;2022-10-26T05:52:46;11.70;;;4.18;;
68718;SDS011;55696;52.138;5.444;2022-10-26T05:55:15;9.93;;;4.20;;
68718;SDS011;55696;52.138;5.444;2022-10-26T05:57:43;10.85;;;4.38;;
68718;SDS011;55696;52.138;5.444;2022-10-26T06:00:28;11.82;;;4.40;;
68718;SDS011;55696;52.138;5.444;2022-10-26T06:05:40;10.02;;;4.07;;
68718;SDS011;55696;52.138;5.444;2022-10-26T06:08:16;11.63;;;4.90;;
68718;SDS011;55696;52.138;5.444;2022-10-26T06:10:44;15.07;;;5.03;;
68718;SDS011;55696;52.138;5.444;2022-10-26T06:13:11;11.70;;;4.07;;
68718;SDS011;55696;52.138;5.444;2022-10-26T06:15:42;12.77;;;4.87;;
68718;SDS011;55696;52.138;5.444;2022-10-26T06:27:51;9.98;;;4.30;;
68718;SDS011;55696;52.138;5.444;2022-10-26T06:30:32;11.07;;;4.40;;
68718;SDS011;55696;52.138;5.444;2022-10-26T06:32:58;9.75;;;4.30;;
68718;SDS011;55696;52.138;5.444;2022-10-26T06:35:49;11.40;;;4.00;;
68718;SDS011;55696;52.138;5.444;2022-10-26T06:38:28;7.68;;;3.92;;
68718;SDS011;55696;52.138;5.444;2022-10-26T06:40:57;11.07;;;4.50;;
68718;SDS011;55696;52.138;5.444;2022-10-26T06:43:26;12.20;;;4.50;;
68718;SDS011;55696;52.138;5.444;2022-10-26T06:51:25;16.48;;;5.05;;
68718;SDS011;55696;52.138;5.444;2022-10-26T06:56:34;11.07;;;4.97;;
68718;SDS011;55696;52.138;5.444;2022-10-26T06:59:08;8.70;;;4.72;;
68718;SDS011;55696;52.138;5.444;2022-10-26T07:01:42;13.05;;;5.05;;
68718;SDS011;55696;52.138;5.444;2022-10-26T07:04:09;10.57;;;4.85;;
68718;SDS011;55696;52.138;5.444;2022-10-26T07:06:36;7.88;;;4.20;;
68718;SDS011;55696;52.138;5.444;2022-10-26T07:09:04;11.73;;;5.00;;
68718;SDS011;55696;52.138;5.444;2022-10-26T07:11:31;9.70;;;4.32;;
68718;SDS011;55696;52.138;5.444;2022-10-26T07:13:58;10.13;;;4.40;;
68718;SDS011;55696;52.138;5.444;2022-10-26T07:16:24;8.02;;;4.05;;
68718;SDS011;55696;52.138;5.444;2022-10-26T07:18:52;11.18;;;4.20;;
68718;SDS011;55696;52.138;5.444;2022-10-26T07:21:19;11.70;;;4.30;;
68718;SDS011;55696;52.138;5.444;2022-10-26T07:23:46;9.63;;;4.22;;
68718;SDS011;55696;52.138;5.444;2022-10-26T07:26:13;11.40;;;4.22;;
68718;SDS011;55696;52.138;5.444;2022-10-26T07:28:39;9.90;;;4.22;;
68718;SDS011;55696;52.138;5.444;2022-10-26T07:31:06;13.23;;;4.00;;
68718;SDS011;55696;52.138;5.444;2022-10-26T07:33:33;8.37;;;4.00;;
68718;SDS011;55696;52.138;5.444;2022-10-26T07:36:05;8.65;;;3.88;;
68718;SDS011;55696;52.138;5.444;2022-10-26T07:38:33;12.82;;;4.47;;
68718;SDS011;55696;52.138;5.444;2022-10-26T07:41:00;10.30;;;4.00;;
68718;SDS011;55696;52.138;5.444;2022-10-26T07:43:27;12.32;;;4.07;;
68718;SDS011;55696;52.138;5.444;2022-10-26T07:45:55;12.77;;;5.53;;
68718;SDS011;55696;52.138;5.444;2022-10-26T07:48:21;8.55;;;4.22;;
68718;SDS011;55696;52.138;5.444;2022-10-26T07:50:48;9.43;;;4.78;;
68718;SDS011;55696;52.138;5.444;2022-10-26T07:53:15;8.38;;;4.13;;
68718;SDS011;55696;52.138;5.444;2022-10-26T07:55:42;11.02;;;4.15;;
68718;SDS011;55696;52.138;5.444;2022-10-26T07:58:08;12.40;;;5.00;;
68718;SDS011;55696;52.138;5.444;2022-10-26T08:00:35;15.45;;;4.03;;
68718;SDS011;55696;52.138;5.444;2022-10-26T08:03:02;10.95;;;3.83;;
68718;SDS011;55696;52.138;5.444;2022-10-26T08:05:28;8.30;;;3.75;;
68718;SDS011;55696;52.138;5.444;2022-10-26T08:08:00;10.18;;;4.13;;
68718;SDS011;55696;52.138;5.444;2022-10-26T08:10:27;11.73;;;4.27;;
68718;SDS011;55696;52.138;5.444;2022-10-26T08:12:54;10.07;;;4.38;;
68718;SDS011;55696;52.138;5.444;2022-10-26T08:15:20;10.68;;;4.47;;
68718;SDS011;55696;52.138;5.444;2022-10-26T08:17:47;11.00;;;4.80;;
68718;SDS011;55696;52.138;5.444;2022-10-26T08:20:14;12.10;;;4.38;;
68718;SDS011;55696;52.138;5.444;2022-10-26T08:22:41;10.63;;;4.27;;
68718;SDS011;55696;52.138;5.444;2022-10-26T08:25:08;11.75;;;4.30;;
68718;SDS011;55696;52.138;5.444;2022-10-26T08:27:35;8.00;;;4.50;;
68718;SDS011;55696;52.138;5.444;2022-10-26T08:30:01;12.50;;;3.70;;
68718;SDS011;55696;52.138;5.444;2022-10-26T08:32:28;9.35;;;3.72;;
68718;SDS011;55696;52.138;5.444;2022-10-26T08:34:55;8.63;;;3.27;;
68718;SDS011;55696;52.138;5.444;2022-10-26T08:37:22;6.25;;;3.47;;
68718;SDS011;55696;52.138;5.444;2022-10-26T08:39:48;9.82;;;3.80;;
68718;SDS011;55696;52.138;5.444;2022-10-26T08:42:21;9.27;;;3.25;;
68718;SDS011;55696;52.138;5.444;2022-10-26T08:44:57;5.85;;;3.47;;
68718;SDS011;55696;52.138;5.444;2022-10-26T08:47:28;5.57;;;3.50;;
68718;SDS011;55696;52.138;5.444;2022-10-26T08:52:52;9.02;;;3.20;;
68718;SDS011;55696;52.138;5.444;2022-10-26T08:55:46;9.02;;;2.95;;
68718;SDS011;55696;52.138;5.444;2022-10-26T08:58:17;8.88;;;3.42;;
68718;SDS011;55696;52.138;5.444;2022-10-26T09:00:48;6.47;;;3.40;;
68718;SDS011;55696;52.138;5.444;2022-10-26T09:03:17;7.80;;;3.35;;
68718;SDS011;55696;52.138;5.444;2022-10-26T09:08:16;7.18;;;3.35;;
68718;SDS011;55696;52.138;5.444;2022-10-26T09:16:29;8.35;;;4.05;;
68718;SDS011;55696;52.138;5.444;2022-10-26T09:19:22;7.70;;;3.70;;
68718;SDS011;55696;52.138;5.444;2022-10-26T09:22:25;7.18;;;3.63;;
68718;SDS011;55696;52.138;5.444;2022-10-26T09:25:20;8.27;;;3.42;;
68718;SDS011;55696;52.138;5.444;2022-10-26T09:27:53;7.47;;;3.70;;
68718;SDS011;55696;52.138;5.444;2022-10-26T09:30:22;9.00;;;4.15;;
68718;SDS011;55696;52.138;5.444;2022-10-26T09:32:49;10.10;;;3.88;;
68718;SDS011;55696;52.138;5.444;2022-10-26T09:36:06;7.72;;;3.40;;
68718;SDS011;55696;52.138;5.444;2022-10-26T09:38:42;7.38;;;3.22;;
68718;SDS011;55696;52.138;5.444;2022-10-26T09:43:57;10.52;;;3.95;;
68718;SDS011;55696;52.138;5.444;2022-10-26T09:46:43;8.00;;;3.47;;
68718;SDS011;55696;52.138;5.444;2022-10-26T09:49:40;8.57;;;3.10;;
68718;SDS011;55696;52.138;5.444;2022-10-26T09:52:14;12.90;;;3.17;;
68718;SDS011;55696;52.138;5.444;2022-10-26T09:54:41;10.77;;;4.77;;
68718;SDS011;55696;52.138;5.444;2022-10-26T09:57:08;6.93;;;3.08;;
68718;SDS011;55696;52.138;5.444;2022-10-26T09:59:38;7.03;;;3.65;;
68718;SDS011;55696;52.138;5.444;2022-10-26T10:02:53;12.50;;;3.70;;
68718;SDS011;55696;52.138;5.444;2022-10-26T10:05:19;8.40;;;3.20;;
68718;SDS011;55696;52.138;5.444;2022-10-26T10:10:56;7.25;;;3.38;;
68718;SDS011;55696;52.138;5.444;2022-10-26T10:13:32;7.07;;;3.17;;
68718;SDS011;55696;52.138;5.444;2022-10-26T10:16:21;8.73;;;3.13;;
68718;SDS011;55696;52.138;5.444;2022-10-26T10:18:53;6.80;;;3.00;;
68718;SDS011;55696;52.138;5.444;2022-10-26T10:21:21;7.23;;;2.80;;
68718;SDS011;55696;52.138;5.444;2022-10-26T10:29:43;15.73;;;3.10;;
68718;SDS011;55696;52.138;5.444;2022-10-26T10:32:18;8.90;;;2.83;;
68718;SDS011;55696;52.138;5.444;2022-10-26T10:34:46;8.97;;;2.73;;
68718;SDS011;55696;52.138;5.444;2022-10-26T10:40:02;8.35;;;2.63;;
68718;SDS011;55696;52.138;5.444;2022-10-26T10:42:37;6.50;;;2.50;;
68718;SDS011;55696;52.138;5.444;2022-10-26T10:45:06;8.05;;;2.50;;
68718;SDS011;55696;52.138;5.444;2022-10-26T10:47:56;7.57;;;3.10;;
68718;SDS011;55696;52.138;5.444;2022-10-26T10:50:26;10.05;;;2.60;;
68718;SDS011;55696;52.138;5.444;2022-10-26T10:55:45;6.15;;;3.17;;
68718;SDS011;55696;52.138;5.444;2022-10-26T11:01:11;8.97;;;3.10;;
68718;SDS011;55696;52.138;5.444;2022-10-26T11:06:35;8.52;;;2.72;;
68718;SDS011;55696;52.138;5.444;2022-10-26T11:09:12;4.47;;;2.40;;
68718;SDS011;55696;52.138;5.444;2022-10-26T11:14:23;5.27;;;2.50;;
68718;SDS011;55696;52.138;5.444;2022-10-26T11:17:42;12.13;;;3.15;;
68718;SDS011;55696;52.138;5.444;2022-10-26T11:22:33;8.32;;;3.08;;
68718;SDS011;55696;52.138;5.444;2022-10-26T11:27:55;11.80;;;3.63;;
68718;SDS011;55696;52.138;5.444;2022-10-26T11:30:27;8.05;;;3.65;;
68718;SDS011;55696;52.138;5.444;2022-10-26T11:33:03;7.43;;;3.20;;
68718;SDS011;55696;52.138;5.444;2022-10-26T11:35:44;5.28;;;3.00;;
68718;SDS011;55696;52.138;5.444;2022-10-26T11:38:28;6.47;;;2.83;;
68718;SDS011;55696;52.138;5.444;2022-10-26T11:41:32;6.37;;;3.10;;
68718;SDS011;55696;52.138;5.444;2022-10-26T11:47:17;6.10;;;2.75;;
68718;SDS011;55696;52.138;5.444;2022-10-26T11:50:05;6.53;;;2.95;;
68718;SDS011;55696;52.138;5.444;2022-10-26T11:52:47;6.68;;;3.00;;
68718;SDS011;55696;52.138;5.444;2022-10-26T11:55:24;8.03;;;3.27;;
68718;SDS011;55696;52.138;5.444;2022-10-26T11:57:51;6.45;;;3.08;;
68718;SDS011;55696;52.138;5.444;2022-10-26T12:00:20;7.97;;;3.00;;
68718;SDS011;55696;52.138;5.444;2022-10-26T12:02:49;7.85;;;4.32;;
68718;SDS011;55696;52.138;5.444;2022-10-26T12:05:32;7.28;;;3.05;;
68718;SDS011;55696;52.138;5.444;2022-10-26T12:08:13;6.57;;;3.20;;
68718;SDS011;55696;52.138;5.444;2022-10-26T12:10:47;10.27;;;3.35;;
68718;SDS011;55696;52.138;5.444;2022-10-26T12:13:56;7.47;;;2.90;;
68718;SDS011;55696;52.138;5.444;2022-10-26T12:16:45;6.18;;;2.65;;
68718;SDS011;55696;52.138;5.444;2022-10-26T12:19:19;10.95;;;3.00;;
68718;SDS011;55696;52.138;5.444;2022-10-26T12:21:54;9.33;;;2.90;;
68718;SDS011;55696;52.138;5.444;2022-10-26T12:26:56;8.63;;;2.40;;
68718;SDS011;55696;52.138;5.444;2022-10-26T12:37:57;5.15;;;2.15;;
68718;SDS011;55696;52.138;5.444;2022-10-26T12:45:43;5.95;;;2.22;;
68718;SDS011;55696;52.138;5.444;2022-10-26T12:48:30;8.63;;;2.30;;
68718;SDS011;55696;52.138;5.444;2022-10-26T12:56:23;7.82;;;2.60;;
68718;SDS011;55696;52.138;5.444;2022-10-26T12:58:59;4.57;;;2.33;;
68718;SDS011;55696;52.138;5.444;2022-10-26T13:07:33;5.53;;;2.50;;
68718;SDS011;55696;52.138;5.444;2022-10-26T13:10:04;8.00;;;2.58;;
68718;SDS011;55696;52.138;5.444;2022-10-26T13:12:50;4.82;;;2.35;;
68718;SDS011;55696;52.138;5.444;2022-10-26T13:15:37;4.90;;;2.37;;
68718;SDS011;55696;52.138;5.444;2022-10-26T13:20:32;7.80;;;2.60;;
68718;SDS011;55696;52.138;5.444;2022-10-26T13:23:01;8.90;;;2.22;;
68718;SDS011;55696;52.138;5.444;2022-10-26T13:25:39;10.68;;;2.53;;
68718;SDS011;55696;52.138;5.444;2022-10-26T13:28:29;7.20;;;2.50;;
68718;SDS011;55696;52.138;5.444;2022-10-26T13:30:58;6.90;;;1.98;;
68718;SDS011;55696;52.138;5.444;2022-10-26T13:33:27;4.40;;;2.15;;
68718;SDS011;55696;52.138;5.444;2022-10-26T13:36:05;6.45;;;2.20;;
68718;SDS011;55696;52.138;5.444;2022-10-26T13:38:54;6.03;;;2.75;;
68718;SDS011;55696;52.138;5.444;2022-10-26T13:41:27;6.07;;;2.37;;
68718;SDS011;55696;52.138;5.444;2022-10-26T13:44:02;10.95;;;2.63;;
68718;SDS011;55696;52.138;5.444;2022-10-26T13:46:33;8.98;;;2.53;;
68718;SDS011;55696;52.138;5.444;2022-10-26T13:49:04;5.90;;;2.40;;
68718;SDS011;55696;52.138;5.444;2022-10-26T13:51:44;5.45;;;2.70;;
68718;SDS011;55696;52.138;5.444;2022-10-26T13:54:22;9.17;;;2.60;;
68718;SDS011;55696;52.138;5.444;2022-10-26T13:56:56;5.93;;;2.50;;
68718;SDS011;55696;52.138;5.444;2022-10-26T13:59:24;5.60;;;2.63;;
68718;SDS011;55696;52.138;5.444;2022-10-26T14:04:45;9.27;;;2.90;;
68718;SDS011;55696;52.138;5.444;2022-10-26T14:07:56;7.97;;;2.70;;
68718;SDS011;55696;52.138;5.444;2022-10-26T14:10:29;4.97;;;2.70;;
68718;SDS011;55696;52.138;5.444;2022-10-26T14:13:06;6.88;;;2.63;;
68718;SDS011;55696;52.138;5.444;2022-10-26T14:15:33;11.60;;;2.83;;
68718;SDS011;55696;52.138;5.444;2022-10-26T14:18:02;9.32;;;2.97;;
68718;SDS011;55696;52.138;5.444;2022-10-26T14:20:29;5.77;;;2.77;;
68718;SDS011;55696;52.138;5.444;2022-10-26T14:22:57;6.45;;;3.03;;
68718;SDS011;55696;52.138;5.444;2022-10-26T14:25:25;5.57;;;2.60;;
68718;SDS011;55696;52.138;5.444;2022-10-26T14:28:29;11.20;;;3.53;;
68718;SDS011;55696;52.138;5.444;2022-10-26T14:31:10;5.20;;;2.70;;
68718;SDS011;55696;52.138;5.444;2022-10-26T14:33:44;9.53;;;3.17;;
68718;SDS011;55696;52.138;5.444;2022-10-26T14:36:11;6.95;;;2.85;;
68718;SDS011;55696;52.138;5.444;2022-10-26T14:38:43;4.55;;;2.42;;
68718;SDS011;55696;52.138;5.444;2022-10-26T14:41:13;9.45;;;2.60;;
68718;SDS011;55696;52.138;5.444;2022-10-26T14:43:42;7.32;;;2.40;;
68718;SDS011;55696;52.138;5.444;2022-10-26T14:46:12;8.40;;;2.67;;
68718;SDS011;55696;52.138;5.444;2022-10-26T14:48:49;11.52;;;2.60;;
68718;SDS011;55696;52.138;5.444;2022-10-26T14:51:28;4.78;;;2.15;;
68718;SDS011;55696;52.138;5.444;2022-10-26T14:53:56;7.88;;;2.63;;
68718;SDS011;55696;52.138;5.444;2022-10-26T14:56:27;5.22;;;1.90;;
68718;SDS011;55696;52.138;5.444;2022-10-26T14:59:10;8.67;;;2.20;;
68718;SDS011;55696;52.138;5.444;2022-10-26T15:01:46;6.10;;;1.92;;
68718;SDS011;55696;52.138;5.444;2022-10-26T15:04:27;7.95;;;2.03;;
68718;SDS011;55696;52.138;5.444;2022-10-26T15:09:41;8.95;;;2.25;;
68718;SDS011;55696;52.138;5.444;2022-10-26T15:14:48;10.75;;;1.80;;
68718;SDS011;55696;52.138;5.444;2022-10-26T15:17:58;8.75;;;2.20;;
68718;SDS011;55696;52.138;5.444;2022-10-26T15:20:16;4.78;;;1.45;;
68718;SDS011;55696;52.138;5.444;2022-10-26T15:22:52;7.97;;;1.70;;
68718;SDS011;55696;52.138;5.444;2022-10-26T15:25:27;6.73;;;1.97;;
68718;SDS011;55696;52.138;5.444;2022-10-26T15:33:39;11.40;;;2.53;;
68718;SDS011;55696;52.138;5.444;2022-10-26T15:38:37;6.53;;;1.60;;
68718;SDS011;55696;52.138;5.444;2022-10-26T15:41:04;9.73;;;1.75;;
68718;SDS011;55696;52.138;5.444;2022-10-26T15:43:38;7.20;;;1.80;;
68718;SDS011;55696;52.138;5.444;2022-10-26T15:46:05;8.52;;;2.63;;
68718;SDS011;55696;52.138;5.444;2022-10-26T15:48:32;7.47;;;1.80;;
68718;SDS011;55696;52.138;5.444;2022-10-26T15:50:59;5.70;;;1.70;;
68718;SDS011;55696;52.138;5.444;2022-10-26T15:53:26;8.32;;;3.08;;
68718;SDS011;55696;52.138;5.444;2022-10-26T15:55:54;12.00;;;3.08;;
68718;SDS011;55696;52.138;5.444;2022-10-26T15:58:22;13.75;;;4.43;;
68718;SDS011;55696;52.138;5.444;2022-10-26T16:00:49;8.82;;;3.20;;
68718;SDS011;55696;52.138;5.444;2022-10-26T16:03:23;8.17;;;2.63;;
68718;SDS011;55696;52.138;5.444;2022-10-26T16:05:55;6.40;;;2.40;;
68718;SDS011;55696;52.138;5.444;2022-10-26T16:08:27;10.90;;;3.08;;
68718;SDS011;55696;52.138;5.444;2022-10-26T16:10:55;5.72;;;2.03;;
68718;SDS011;55696;52.138;5.444;2022-10-26T16:13:22;5.50;;;2.08;;
68718;SDS011;55696;52.138;5.444;2022-10-26T16:15:49;8.90;;;2.70;;
68718;SDS011;55696;52.138;5.444;2022-10-26T16:18:16;10.00;;;3.20;;
68718;SDS011;55696;52.138;5.444;2022-10-26T16:20:44;12.05;;;3.33;;
68718;SDS011;55696;52.138;5.444;2022-10-26T16:23:11;9.35;;;3.28;;
68718;SDS011;55696;52.138;5.444;2022-10-26T16:25:44;7.68;;;3.85;;
68718;SDS011;55696;52.138;5.444;2022-10-26T16:28:12;14.20;;;5.23;;
68718;SDS011;55696;52.138;5.444;2022-10-26T16:30:41;8.80;;;3.20;;
68718;SDS011;55696;52.138;5.444;2022-10-26T16:33:08;8.13;;;2.28;;
68718;SDS011;55696;52.138;5.444;2022-10-26T16:35:35;9.75;;;2.40;;
68718;SDS011;55696;52.138;5.444;2022-10-26T16:38:02;7.85;;;2.60;;
68718;SDS011;55696;52.138;5.444;2022-10-26T16:40:29;9.87;;;3.47;;
68718;SDS011;55696;52.138;5.444;2022-10-26T16:42:55;6.93;;;2.42;;
68718;SDS011;55696;52.138;5.444;2022-10-26T16:45:22;5.22;;;2.17;;
68718;SDS011;55696;52.138;5.444;2022-10-26T16:47:48;6.97;;;2.40;;
68718;SDS011;55696;52.138;5.444;2022-10-26T16:50:16;5.03;;;1.80;;
68718;SDS011;55696;52.138;5.444;2022-10-26T16:52:45;7.17;;;2.20;;
68718;SDS011;55696;52.138;5.444;2022-10-26T16:55:12;8.23;;;2.50;;
68718;SDS011;55696;52.138;5.444;2022-10-26T16:57:39;12.15;;;3.13;;
68718;SDS011;55696;52.138;5.444;2022-10-26T17:00:06;7.43;;;2.97;;
68718;SDS011;55696;52.138;5.444;2022-10-26T17:02:33;10.13;;;2.75;;
68718;SDS011;55696;52.138;5.444;2022-10-26T17:05:00;8.40;;;2.80;;
68718;SDS011;55696;52.138;5.444;2022-10-26T17:07:32;10.18;;;3.08;;
68718;SDS011;55696;52.138;5.444;2022-10-26T17:09:59;13.05;;;2.80;;
68718;SDS011;55696;52.138;5.444;2022-10-26T17:12:25;10.73;;;3.28;;
68718;SDS011;55696;52.138;5.444;2022-10-26T17:14:57;8.15;;;2.40;;
68718;SDS011;55696;52.138;5.444;2022-10-26T17:17:25;7.23;;;2.90;;
68718;SDS011;55696;52.138;5.444;2022-10-26T17:19:52;11.10;;;2.80;;
68718;SDS011;55696;52.138;5.444;2022-10-26T17:22:19;7.03;;;2.00;;
68718;SDS011;55696;52.138;5.444;2022-10-26T17:24:45;10.27;;;2.90;;
68718;SDS011;55696;52.138;5.444;2022-10-26T17:27:12;9.23;;;2.65;;